createdAt,value
2023-03-02T00:01:08.548Z,89.40
2023-03-02T00:03:42.332Z,85.47
2023-03-02T00:06:14.961Z,84.05
2023-03-02T00:08:47.979Z,85.75
2023-03-02T00:11:21.877Z,85.47
2023-03-02T00:13:54.167Z,78.67
2023-03-02T00:16:26.721Z,87.50
2023-03-02T00:18:58.977Z,81.20
2023-03-02T00:21:32.103Z,91.53
2023-03-02T00:24:06.003Z,88.67
2023-03-02T00:26:39.001Z,81.50
2023-03-02T00:29:11.582Z,85.90
2023-03-02T00:31:44.098Z,86.13
2023-03-02T00:34:17.084Z,82.87
2023-03-02T00:36:50.328Z,84.43
2023-03-02T00:39:22.638Z,80.67
2023-03-02T00:41:55.149Z,76.63
2023-03-02T00:44:27.403Z,78.83
2023-03-02T00:46:59.817Z,85.60
2023-03-02T00:49:33.064Z,82.47
2023-03-02T00:52:07.224Z,81.37
2023-03-02T00:54:39.517Z,75.25
2023-03-02T00:57:11.925Z,79.73
2023-03-02T00:59:44.237Z,78.73
2023-03-02T01:02:26.260Z,81.87
2023-03-02T01:04:59.943Z,79.77
2023-03-02T01:07:35.313Z,77.77
2023-03-02T01:10:10.736Z,78.10
2023-03-02T01:12:43.835Z,79.17
2023-03-02T01:15:16.580Z,81.10
2023-03-02T01:17:48.883Z,74.80
2023-03-02T01:20:21.622Z,72.67
2023-03-02T01:22:56.748Z,89.03
2023-03-02T01:25:29.121Z,85.55
2023-03-02T01:28:04.097Z,84.20
2023-03-02T01:30:37.258Z,94.33
2023-03-02T01:33:09.745Z,86.90
2023-03-02T01:35:43.234Z,81.30
2023-03-02T01:38:16.741Z,86.30
2023-03-02T01:40:49.608Z,91.25
2023-03-02T01:43:21.971Z,86.20
2023-03-02T01:45:57.601Z,95.27
2023-03-02T01:48:53.541Z,101.77
2023-03-02T01:51:39.595Z,90.97
2023-03-02T01:54:17.442Z,92.13
2023-03-02T01:56:51.500Z,97.40
2023-03-02T01:59:25.716Z,88.72
2023-03-02T02:02:02.262Z,82.83
2023-03-02T02:04:37.693Z,91.53
2023-03-02T02:07:11.411Z,92.95
2023-03-02T02:09:49.384Z,90.63
2023-03-02T02:12:23.772Z,87.23
2023-03-02T02:15:01.115Z,94.13
2023-03-02T02:17:38.560Z,90.20
2023-03-02T02:20:21.613Z,92.63
2023-03-02T02:23:06.423Z,85.83
2023-03-02T02:28:24.607Z,72.77
2023-03-02T02:31:14.238Z,73.03
2023-03-02T02:33:53.093Z,82.80
2023-03-02T02:36:34.178Z,70.40
2023-03-02T02:39:16.626Z,65.78
2023-03-02T02:41:52.430Z,62.10
2023-03-02T02:44:25.306Z,65.23
2023-03-02T02:46:58.057Z,75.50
2023-03-02T02:49:38.222Z,63.60
2023-03-02T02:52:13.575Z,64.53
2023-03-02T02:54:49.438Z,60.73
2023-03-02T02:57:25.364Z,58.30
2023-03-02T03:00:03.081Z,65.77
2023-03-02T03:02:45.820Z,65.53
2023-03-02T03:05:18.480Z,65.37
2023-03-02T03:07:51.113Z,65.57
2023-03-02T03:10:30.486Z,58.47
2023-03-02T03:13:03.992Z,59.33
2023-03-02T03:15:36.283Z,70.37
2023-03-02T03:18:10.684Z,56.10
2023-03-02T03:20:45.659Z,59.87
2023-03-02T03:23:18.343Z,61.10
2023-03-02T03:25:51.125Z,63.27
2023-03-02T03:28:23.451Z,55.83
2023-03-02T03:30:56.517Z,63.13
2023-03-02T03:33:29.133Z,59.83
2023-03-02T03:36:02.532Z,62.47
2023-03-02T03:38:36.015Z,61.65
2023-03-02T03:41:08.599Z,66.10
2023-03-02T03:43:40.874Z,58.67
2023-03-02T03:46:13.376Z,62.93
2023-03-02T03:48:45.746Z,64.53
2023-03-02T03:51:18.893Z,61.13
2023-03-02T03:54:00.156Z,68.90
2023-03-02T03:59:12.562Z,53.70
2023-03-02T04:01:51.292Z,65.70
2023-03-02T04:06:56.808Z,62.43
2023-03-02T04:09:32.471Z,56.70
2023-03-02T04:12:05.498Z,50.73
2023-03-02T04:14:38.627Z,61.53
2023-03-02T04:17:11.136Z,58.00
2023-03-02T04:19:47.332Z,61.03
2023-03-02T04:22:20.374Z,61.60
2023-03-02T04:24:53.342Z,66.97
2023-03-02T04:27:25.778Z,68.73
2023-03-02T04:29:58.111Z,68.07
2023-03-02T04:32:34.473Z,68.70
2023-03-02T04:35:09.011Z,55.80
2023-03-02T04:37:42.720Z,65.77
2023-03-02T04:40:17.694Z,62.23
2023-03-02T04:42:52.468Z,60.43
2023-03-02T04:45:25.078Z,67.00
2023-03-02T04:47:59.907Z,64.90
2023-03-02T04:50:32.271Z,68.70
2023-03-02T04:53:08.261Z,68.53
2023-03-02T04:55:41.873Z,72.50
2023-03-02T04:58:14.838Z,69.20
2023-03-02T05:00:47.654Z,71.30
2023-03-02T05:03:20.199Z,67.77
2023-03-02T05:05:52.977Z,70.90
2023-03-02T05:08:25.644Z,64.43
2023-03-02T05:10:58.445Z,75.47
2023-03-02T05:13:31.307Z,74.60
2023-03-02T05:16:05.538Z,71.23
2023-03-02T05:18:37.859Z,67.45
2023-03-02T05:21:10.598Z,72.50
2023-03-02T05:23:43.802Z,66.87
2023-03-02T05:26:17.038Z,83.37
2023-03-02T05:28:50.346Z,78.23
2023-03-02T05:31:27.509Z,88.33
2023-03-02T05:34:00.050Z,104.97
2023-03-02T05:36:34.052Z,80.97
2023-03-02T05:39:08.160Z,81.45
2023-03-02T05:41:41.948Z,82.95
2023-03-02T05:44:14.348Z,85.25
2023-03-02T05:46:47.251Z,81.43
2023-03-02T05:49:19.640Z,73.70
2023-03-02T05:51:52.486Z,76.53
2023-03-02T05:54:24.756Z,80.30
2023-03-02T05:56:57.316Z,72.43
2023-03-02T05:59:29.712Z,92.07
2023-03-02T06:02:02.615Z,82.97
2023-03-02T06:04:35.043Z,90.13
2023-03-02T06:07:08.482Z,72.70
2023-03-02T06:09:42.537Z,82.10
2023-03-02T06:12:15.913Z,84.00
2023-03-02T06:14:48.238Z,82.77
2023-03-02T06:17:21.251Z,83.07
2023-03-02T06:19:55.884Z,94.73
2023-03-02T06:22:29.830Z,96.53
2023-03-02T06:25:04.452Z,85.53
2023-03-02T06:27:38.036Z,76.57
2023-03-02T06:30:14.533Z,101.60
2023-03-02T06:32:46.996Z,85.87
2023-03-02T06:35:19.921Z,84.07
2023-03-02T06:37:52.836Z,86.00
2023-03-02T06:40:25.216Z,72.03
2023-03-02T06:43:01.313Z,74.63
2023-03-02T06:45:39.118Z,78.63
2023-03-02T06:48:11.692Z,79.60
2023-03-02T06:50:45.947Z,88.27
2023-03-02T06:55:51.645Z,85.47
2023-03-02T06:58:24.323Z,87.30
2023-03-02T07:00:56.655Z,91.27
2023-03-02T07:03:29.030Z,89.60
2023-03-02T07:06:01.359Z,89.40
2023-03-02T07:08:34.844Z,77.87
2023-03-02T07:11:11.935Z,82.97
2023-03-02T07:13:44.359Z,81.03
2023-03-02T07:16:17.759Z,77.83
2023-03-02T07:18:50.141Z,79.60
2023-03-02T07:21:22.489Z,81.13
2023-03-02T07:23:54.918Z,77.47
2023-03-02T07:26:28.092Z,77.73
2023-03-02T07:29:01.265Z,80.97
2023-03-02T07:31:37.229Z,78.62
2023-03-02T07:34:09.524Z,85.87
2023-03-02T07:36:41.750Z,79.83
2023-03-02T07:39:14.343Z,86.17
2023-03-02T07:41:46.908Z,87.90
2023-03-02T07:44:19.449Z,79.40
2023-03-02T07:46:51.916Z,77.33
2023-03-02T07:49:24.742Z,74.53
2023-03-02T07:51:57.019Z,71.30
2023-03-02T07:54:30.879Z,75.07
2023-03-02T07:57:03.979Z,76.95
2023-03-02T07:59:36.496Z,82.07
2023-03-02T08:02:10.710Z,90.17
2023-03-02T08:04:43.728Z,96.67
2023-03-02T08:07:16.222Z,84.37
2023-03-02T08:09:48.902Z,87.90
2023-03-02T08:12:21.388Z,87.13
2023-03-02T08:14:54.144Z,84.80
2023-03-02T08:17:26.596Z,85.10
2023-03-02T08:19:59.278Z,81.93
2023-03-02T08:22:32.461Z,90.10
2023-03-02T08:25:09.069Z,77.57
2023-03-02T08:27:41.556Z,84.33
2023-03-02T08:30:16.411Z,74.33
2023-03-02T08:32:48.849Z,77.10
2023-03-02T08:35:22.602Z,77.03
2023-03-02T08:37:55.400Z,71.30
2023-03-02T08:40:28.056Z,72.13
2023-03-02T08:43:00.345Z,72.47
2023-03-02T08:45:36.091Z,70.40
2023-03-02T08:48:09.845Z,63.17
2023-03-02T08:50:43.984Z,70.63
2023-03-02T08:53:16.553Z,69.27
2023-03-02T08:55:49.146Z,59.27
2023-03-02T08:58:21.903Z,66.10
2023-03-02T09:00:54.680Z,66.47
2023-03-02T09:03:27.090Z,60.80
2023-03-02T09:05:59.771Z,64.27
2023-03-02T09:08:32.090Z,64.07
2023-03-02T09:11:06.536Z,57.80
2023-03-02T09:16:12.580Z,51.87
2023-03-02T09:18:45.128Z,54.50
2023-03-02T09:21:17.563Z,51.57
2023-03-02T09:23:53.904Z,43.77
2023-03-02T09:26:27.287Z,48.23
2023-03-02T09:29:00.908Z,55.03
2023-03-02T09:31:38.869Z,51.10
2023-03-02T09:34:11.478Z,45.93
2023-03-02T09:36:44.077Z,37.10
2023-03-02T09:39:16.384Z,32.07
2023-03-02T09:42:17.851Z,23.33
2023-03-02T09:45:35.373Z,43.33
2023-03-02T09:48:18.723Z,24.57
2023-03-02T09:51:01.246Z,23.97
2023-03-02T09:53:44.299Z,22.33
2023-03-02T09:56:20.226Z,20.57
2023-03-02T09:59:00.535Z,18.37
2023-03-02T10:01:44.130Z,14.63
2023-03-02T10:04:29.138Z,16.77
2023-03-02T10:07:12.807Z,21.87
2023-03-02T10:09:45.689Z,21.73
2023-03-02T10:12:38.042Z,23.40
2023-03-02T10:15:15.946Z,17.93
2023-03-02T10:18:00.859Z,18.50
2023-03-02T10:20:47.555Z,18.60
2023-03-02T10:23:34.206Z,16.90
2023-03-02T10:26:16.077Z,13.87
2023-03-02T10:28:52.217Z,16.67
2023-03-02T10:31:30.758Z,13.10
2023-03-02T10:34:04.605Z,14.67
2023-03-02T10:36:41.625Z,12.77
2023-03-02T10:39:17.293Z,9.03
2023-03-02T10:41:54.501Z,8.93
2023-03-02T10:44:29.611Z,11.60
2023-03-02T10:47:01.904Z,11.37
2023-03-02T10:49:39.493Z,13.80
2023-03-02T10:52:17.326Z,11.60
2023-03-02T10:54:50.142Z,8.17
2023-03-02T10:57:36.648Z,11.00
2023-03-02T11:00:19.368Z,11.67
2023-03-02T11:02:57.743Z,10.40
2023-03-02T11:05:35.557Z,11.67
2023-03-02T11:08:12.532Z,12.67
2023-03-02T11:10:57.012Z,9.93
2023-03-02T11:13:35.582Z,9.27
2023-03-02T11:16:29.242Z,10.40
2023-03-02T11:19:06.706Z,11.00
2023-03-02T11:21:43.065Z,14.53
2023-03-02T11:24:20.012Z,13.47
2023-03-02T11:26:55.117Z,12.05
2023-03-02T11:29:43.292Z,13.53
2023-03-02T11:32:21.543Z,10.47
2023-03-02T11:34:58.002Z,9.97
2023-03-02T11:37:41.176Z,11.00
2023-03-02T11:40:23.963Z,10.80
2023-03-02T11:42:59.912Z,8.90
2023-03-02T11:45:35.064Z,10.70
2023-03-02T11:48:16.334Z,10.17
2023-03-02T11:50:57.718Z,10.13
2023-03-02T11:53:35.100Z,12.10
2023-03-02T11:56:08.459Z,11.77
2023-03-02T11:58:43.733Z,11.70
2023-03-02T12:01:23.627Z,12.93
2023-03-02T12:04:07.609Z,12.70
2023-03-02T12:06:44.383Z,13.88
2023-03-02T12:09:39.595Z,14.80
2023-03-02T12:12:35.358Z,12.10
2023-03-02T12:15:30.878Z,11.63
2023-03-02T12:18:03.630Z,12.23
2023-03-02T12:20:35.928Z,13.07
2023-03-02T12:23:25.298Z,17.53
2023-03-02T12:26:09.052Z,16.00
2023-03-02T12:28:42.568Z,14.00
2023-03-02T12:31:16.542Z,16.25
2023-03-02T12:33:52.447Z,13.70
2023-03-02T12:36:33.598Z,13.67
2023-03-02T12:39:27.535Z,13.07
2023-03-02T12:42:31.831Z,16.43
2023-03-02T12:45:16.912Z,11.80
2023-03-02T12:47:54.207Z,10.77
2023-03-02T12:50:31.358Z,13.17
2023-03-02T12:53:06.435Z,12.23
2023-03-02T12:55:41.292Z,11.73
2023-03-02T12:58:20.407Z,11.03
2023-03-02T13:00:58.126Z,13.30
2023-03-02T13:03:32.651Z,15.50
2023-03-02T13:06:13.337Z,11.23
2023-03-02T13:08:49.128Z,13.40
2023-03-02T13:11:29.091Z,14.07
2023-03-02T13:14:05.139Z,13.27
2023-03-02T13:16:38.240Z,11.03
2023-03-02T13:19:16.706Z,13.40
2023-03-02T13:21:49.403Z,12.30
2023-03-02T13:24:46.913Z,12.73
2023-03-02T13:27:21.691Z,19.13
2023-03-02T13:29:55.794Z,16.97
2023-03-02T13:32:35.990Z,15.70
2023-03-02T13:35:20.667Z,15.57
2023-03-02T13:38:01.762Z,16.20
2023-03-02T13:40:42.911Z,19.00
2023-03-02T13:43:37.840Z,13.23
2023-03-02T13:49:10.677Z,16.67
2023-03-02T13:51:46.778Z,19.70
2023-03-02T13:54:25.315Z,17.10
2023-03-02T13:57:00.525Z,17.83
2023-03-02T13:59:36.716Z,20.20
2023-03-02T14:02:23.779Z,17.97
2023-03-02T14:04:56.917Z,19.67
2023-03-02T14:07:29.397Z,21.50
2023-03-02T14:10:02.756Z,18.67
2023-03-02T14:12:36.115Z,22.57
2023-03-02T14:15:17.171Z,21.90
2023-03-02T14:17:50.512Z,20.33
2023-03-02T14:20:23.326Z,23.67
2023-03-02T14:22:55.627Z,25.00
2023-03-02T14:25:28.845Z,27.13
2023-03-02T14:28:01.205Z,26.70
2023-03-02T14:30:36.103Z,25.50
2023-03-02T14:33:16.972Z,27.23
2023-03-02T14:35:50.181Z,27.57
2023-03-02T14:38:24.801Z,26.27
2023-03-02T14:40:57.700Z,28.10
2023-03-02T14:43:30.858Z,25.47
2023-03-02T14:46:03.830Z,29.27
2023-03-02T14:48:36.819Z,28.40
2023-03-02T14:51:23.214Z,28.80
2023-03-02T14:53:59.376Z,30.80
2023-03-02T14:56:33.474Z,30.67
2023-03-02T14:59:07.075Z,32.25
2023-03-02T15:01:40.263Z,32.50
2023-03-02T15:04:13.322Z,30.33
2023-03-02T15:06:47.480Z,32.70
2023-03-02T15:09:20.129Z,29.43
2023-03-02T15:11:52.626Z,28.23
2023-03-02T15:14:24.959Z,28.50
2023-03-02T15:16:57.636Z,26.90
2023-03-02T15:19:29.919Z,29.77
2023-03-02T15:22:02.429Z,26.83
2023-03-02T15:24:36.249Z,27.05
2023-03-02T15:27:09.696Z,26.20
2023-03-02T15:29:46.456Z,29.63
2023-03-02T15:32:19.184Z,26.63
2023-03-02T15:34:51.580Z,27.63
2023-03-02T15:37:23.896Z,26.57
2023-03-02T15:40:02.033Z,27.37
2023-03-02T15:42:36.582Z,25.95
2023-03-02T15:45:11.616Z,23.37
2023-03-02T15:47:44.240Z,23.13
2023-03-02T15:50:16.816Z,27.37
2023-03-02T15:52:49.671Z,23.53
2023-03-02T15:55:22.115Z,29.63
2023-03-02T15:57:58.306Z,26.45
2023-03-02T16:00:30.727Z,25.17
2023-03-02T16:03:03.227Z,26.85
2023-03-02T16:05:36.088Z,26.90
2023-03-02T16:08:12.622Z,27.27
2023-03-02T16:10:45.247Z,28.97
2023-03-02T16:13:17.963Z,28.97
2023-03-02T16:15:50.578Z,31.60
2023-03-02T16:18:24.349Z,27.07
2023-03-02T16:20:58.117Z,29.70
2023-03-02T16:23:31.548Z,24.97
2023-03-02T16:26:13.448Z,23.47
2023-03-02T16:28:49.173Z,24.37
2023-03-02T16:31:29.357Z,29.60
2023-03-02T16:34:07.660Z,26.90
2023-03-02T16:36:42.312Z,26.47
2023-03-02T16:41:47.550Z,28.30
2023-03-02T16:44:20.729Z,33.87
2023-03-02T16:46:56.952Z,44.83
2023-03-02T16:49:33.786Z,48.77
2023-03-02T16:52:07.780Z,47.73
2023-03-02T16:54:40.416Z,63.93
2023-03-02T16:57:13.233Z,100.67
2023-03-02T16:59:45.630Z,101.20
2023-03-02T17:02:19.209Z,107.53
2023-03-02T17:04:51.896Z,91.57
2023-03-02T17:07:24.566Z,81.90
2023-03-02T17:09:59.117Z,88.43
2023-03-02T17:12:42.841Z,91.77
2023-03-02T17:15:18.102Z,78.63
2023-03-02T17:17:50.686Z,88.33
2023-03-02T17:20:23.375Z,83.47
2023-03-02T17:22:56.519Z,72.57
2023-03-02T17:25:29.504Z,63.67
2023-03-02T17:28:05.024Z,59.00
2023-03-02T17:30:38.163Z,63.47
2023-03-02T17:33:10.847Z,57.30
2023-03-02T17:35:46.394Z,54.80
2023-03-02T17:38:19.651Z,56.63
2023-03-02T17:40:51.899Z,69.30
2023-03-02T17:43:24.665Z,73.70
2023-03-02T17:45:58.098Z,62.53
2023-03-02T17:48:30.706Z,52.38
2023-03-02T17:51:03.212Z,53.40
2023-03-02T17:53:37.095Z,56.60
2023-03-02T17:56:11.814Z,54.15
2023-03-02T17:58:45.542Z,48.90
2023-03-02T18:01:17.991Z,52.05
2023-03-02T18:03:50.495Z,50.93
2023-03-02T18:06:23.117Z,50.50
2023-03-02T18:08:55.922Z,53.97
2023-03-02T18:11:30.496Z,59.75
2023-03-02T18:14:03.384Z,61.67
2023-03-02T18:16:52.308Z,59.67
2023-03-02T18:19:25.052Z,59.37
2023-03-02T18:21:57.657Z,64.47
2023-03-02T18:24:33.808Z,62.47
2023-03-02T18:27:11.366Z,56.90
2023-03-02T18:29:44.117Z,63.30
2023-03-02T18:32:17.710Z,61.17
2023-03-02T18:34:50.333Z,51.73
2023-03-02T18:37:22.972Z,52.97
2023-03-02T18:39:55.888Z,52.37
2023-03-02T18:42:33.949Z,54.77
2023-03-02T18:45:19.134Z,53.50
2023-03-02T18:47:51.713Z,53.63
2023-03-02T18:50:25.266Z,57.07
2023-03-02T18:52:58.386Z,67.27
2023-03-02T18:55:31.260Z,62.47
2023-03-02T18:58:03.906Z,62.70
2023-03-02T19:00:39.966Z,73.10
2023-03-02T19:03:12.974Z,88.57
2023-03-02T19:05:49.497Z,102.10
2023-03-02T19:08:23.622Z,122.33
2023-03-02T19:10:57.230Z,93.17
2023-03-02T19:13:33.477Z,92.80
2023-03-02T19:16:09.449Z,80.63
2023-03-02T19:18:42.300Z,78.17
2023-03-02T19:21:15.073Z,75.50
2023-03-02T19:23:47.937Z,77.70
2023-03-02T19:26:21.462Z,78.37
2023-03-02T19:28:55.367Z,68.47
2023-03-02T19:31:31.939Z,67.30
2023-03-02T19:34:10.369Z,78.20
2023-03-02T19:36:47.919Z,70.53
2023-03-02T19:39:22.281Z,77.57
2023-03-02T19:42:02.366Z,91.33
2023-03-02T19:44:43.382Z,130.40
2023-03-02T19:47:19.493Z,102.70
2023-03-02T19:49:57.108Z,113.53
2023-03-02T19:52:42.414Z,116.70
2023-03-02T19:55:20.884Z,130.17
2023-03-02T19:58:05.611Z,126.67
2023-03-02T20:00:43.232Z,114.60
2023-03-02T20:03:22.237Z,132.15
2023-03-02T20:06:07.778Z,116.63
2023-03-02T20:08:52.103Z,119.67
2023-03-02T20:11:27.051Z,122.23
2023-03-02T20:14:03.220Z,115.90
2023-03-02T20:16:45.115Z,126.63
2023-03-02T20:19:22.799Z,120.87
2023-03-02T20:21:58.400Z,123.53
2023-03-02T20:24:51.403Z,140.17
2023-03-02T20:27:27.451Z,143.20
2023-03-02T20:30:18.023Z,147.93
2023-03-02T20:32:52.603Z,199.25
2023-03-02T20:35:31.698Z,195.63
2023-03-02T20:38:16.346Z,175.83
2023-03-02T20:40:58.806Z,178.90
2023-03-02T20:43:35.308Z,160.83
2023-03-02T20:46:22.190Z,166.43
2023-03-02T20:49:09.669Z,164.80
2023-03-02T20:51:49.425Z,144.80
2023-03-02T20:54:27.869Z,146.30
2023-03-02T20:57:09.069Z,138.67
2023-03-02T20:59:46.098Z,138.77
2023-03-02T21:02:28.367Z,144.23
2023-03-02T21:05:05.512Z,144.33
2023-03-02T21:07:44.383Z,138.57
2023-03-02T21:10:21.756Z,153.33
2023-03-02T21:12:55.310Z,159.17
2023-03-02T21:15:29.456Z,154.13
2023-03-02T21:18:02.156Z,137.82
2023-03-02T21:23:17.278Z,144.23
2023-03-02T21:25:50.177Z,145.87
2023-03-02T21:28:22.937Z,151.23
2023-03-02T21:30:55.362Z,140.87
2023-03-02T21:33:29.052Z,158.27
2023-03-02T21:36:01.671Z,159.57
2023-03-02T21:38:36.652Z,144.10
2023-03-02T21:41:14.826Z,139.07
2023-03-02T21:43:48.644Z,128.57
2023-03-02T21:46:24.167Z,136.63
2023-03-02T21:48:58.332Z,139.97
2023-03-02T21:51:34.010Z,133.80
2023-03-02T21:54:10.547Z,141.67
2023-03-02T21:56:46.136Z,141.17
2023-03-02T21:59:18.919Z,143.63
2023-03-02T22:01:51.654Z,135.60
2023-03-02T22:04:24.787Z,143.03
2023-03-02T22:06:57.433Z,150.87
2023-03-02T22:09:30.173Z,140.77
2023-03-02T22:12:02.964Z,135.97
2023-03-02T22:14:36.591Z,140.92
2023-03-02T22:17:20.476Z,132.33
2023-03-02T22:19:54.509Z,141.87
2023-03-02T22:22:30.577Z,139.80
2023-03-02T22:25:16.202Z,132.83
2023-03-02T22:27:50.403Z,135.33
2023-03-02T22:30:27.104Z,133.27
2023-03-02T22:33:01.194Z,144.93
2023-03-02T22:35:34.305Z,140.63
2023-03-02T22:38:15.146Z,141.07
2023-03-02T22:40:49.579Z,131.93
2023-03-02T22:43:29.623Z,142.50
2023-03-02T22:46:16.812Z,132.30
2023-03-02T22:48:51.359Z,135.07
2023-03-02T22:51:25.947Z,143.53
2023-03-02T22:54:01.857Z,151.63
2023-03-02T22:56:39.083Z,138.35
2023-03-02T22:59:21.758Z,140.03
2023-03-02T23:01:55.801Z,134.23
2023-03-02T23:04:38.166Z,134.35
2023-03-02T23:07:21.480Z,130.07
2023-03-02T23:09:53.979Z,133.23
2023-03-02T23:12:29.115Z,136.90
2023-03-02T23:15:03.115Z,139.07
2023-03-02T23:17:39.940Z,133.70
2023-03-02T23:20:17.132Z,141.87
2023-03-02T23:22:52.147Z,135.00
2023-03-02T23:25:25.074Z,130.17
2023-03-02T23:27:57.692Z,137.30
2023-03-02T23:30:30.364Z,130.13
2023-03-02T23:33:02.845Z,138.27
2023-03-02T23:35:38.079Z,134.77
2023-03-02T23:38:13.488Z,132.47
2023-03-02T23:40:49.329Z,141.57
2023-03-02T23:43:24.433Z,127.13
2023-03-02T23:45:57.489Z,127.83
2023-03-02T23:48:30.154Z,131.10
2023-03-02T23:51:02.990Z,127.03
2023-03-02T23:53:38.038Z,126.80
2023-03-02T23:56:14.326Z,128.70
2023-03-02T23:58:50.536Z,129.90
